sensor_id;sensor_type;location;lat;lon;timestamp;temperature;humidity
52979;DHT22;63430;53.186;6.598;2023-12-04T00:01:02;0.40;99.90
52979;DHT22;63430;53.186;6.598;2023-12-04T00:03:05;-0.70;99.90
52979;DHT22;63430;53.186;6.598;2023-12-04T00:05:10;0.40;99.90
52979;DHT22;63430;53.186;6.598;2023-12-04T00:07:13;0.40;99.90
52979;DHT22;63430;53.186;6.598;2023-12-04T00:09:15;0.40;99.90
52979;DHT22;63430;53.186;6.598;2023-12-04T00:11:18;0.40;99.90
52979;DHT22;63430;53.186;6.598;2023-12-04T00:13:21;0.40;99.90
52979;DHT22;63430;53.186;6.598;2023-12-04T00:15:23;1.80;99.90
52979;DHT22;63430;53.186;6.598;2023-12-04T00:17:26;0.80;99.90
52979;DHT22;63430;53.186;6.598;2023-12-04T00:19:28;0.40;99.90
52979;DHT22;63430;53.186;6.598;2023-12-04T00:21:35;0.50;99.90
52979;DHT22;63430;53.186;6.598;2023-12-04T00:23:37;0.40;99.90
52979;DHT22;63430;53.186;6.598;2023-12-04T00:25:40;0.40;99.90
52979;DHT22;63430;53.186;6.598;2023-12-04T00:27:42;0.50;99.90
52979;DHT22;63430;53.186;6.598;2023-12-04T00:29:45;0.40;99.90
52979;DHT22;63430;53.186;6.598;2023-12-04T00:31:48;0.30;99.90
52979;DHT22;63430;53.186;6.598;2023-12-04T00:33:50;0.40;99.90
52979;DHT22;63430;53.186;6.598;2023-12-04T00:35:53;0.40;99.90
52979;DHT22;63430;53.186;6.598;2023-12-04T00:37:58;0.40;99.90
52979;DHT22;63430;53.186;6.598;2023-12-04T00:40:01;0.40;99.90
52979;DHT22;63430;53.186;6.598;2023-12-04T00:42:05;0.40;99.90
52979;DHT22;63430;53.186;6.598;2023-12-04T00:44:08;0.40;99.90
52979;DHT22;63430;53.186;6.598;2023-12-04T00:46:11;0.40;99.90
52979;DHT22;63430;53.186;6.598;2023-12-04T00:48:13;0.40;99.90
52979;DHT22;63430;53.186;6.598;2023-12-04T00:50:16;0.40;99.90
52979;DHT22;63430;53.186;6.598;2023-12-04T00:52:20;0.40;99.90
52979;DHT22;63430;53.186;6.598;2023-12-04T00:54:25;0.40;99.90
52979;DHT22;63430;53.186;6.598;2023-12-04T00:56:28;0.40;99.90
52979;DHT22;63430;53.186;6.598;2023-12-04T00:58:31;0.40;99.90
52979;DHT22;63430;53.186;6.598;2023-12-04T01:00:36;0.30;99.90
52979;DHT22;63430;53.186;6.598;2023-12-04T01:02:39;0.30;99.90
52979;DHT22;63430;53.186;6.598;2023-12-04T01:04:42;0.40;99.90
52979;DHT22;63430;53.186;6.598;2023-12-04T01:06:45;1.30;99.90
52979;DHT22;63430;53.186;6.598;2023-12-04T01:08:47;0.30;99.90
52979;DHT22;63430;53.186;6.598;2023-12-04T01:10:53;0.60;99.90
52979;DHT22;63430;53.186;6.598;2023-12-04T01:12:55;0.40;99.90
52979;DHT22;63430;53.186;6.598;2023-12-04T01:14:58;0.30;99.90
52979;DHT22;63430;53.186;6.598;2023-12-04T01:17:01;0.70;99.90
52979;DHT22;63430;53.186;6.598;2023-12-04T01:19:03;0.30;99.90
52979;DHT22;63430;53.186;6.598;2023-12-04T01:21:07;0.20;99.90
52979;DHT22;63430;53.186;6.598;2023-12-04T01:23:11;1.60;99.90
52979;DHT22;63430;53.186;6.598;2023-12-04T01:25:14;1.20;99.90
52979;DHT22;63430;53.186;6.598;2023-12-04T01:27:19;0.40;99.90
52979;DHT22;63430;53.186;6.598;2023-12-04T01:29:22;0.30;99.90
52979;DHT22;63430;53.186;6.598;2023-12-04T01:31:24;0.30;99.90
52979;DHT22;63430;53.186;6.598;2023-12-04T01:33:27;0.40;99.90
52979;DHT22;63430;53.186;6.598;2023-12-04T01:35:32;0.40;99.90
52979;DHT22;63430;53.186;6.598;2023-12-04T01:37:37;0.30;99.90
52979;DHT22;63430;53.186;6.598;2023-12-04T01:39:39;2.10;99.90
52979;DHT22;63430;53.186;6.598;2023-12-04T01:41:42;0.30;99.90
52979;DHT22;63430;53.186;6.598;2023-12-04T01:43:47;0.30;99.90
52979;DHT22;63430;53.186;6.598;2023-12-04T01:45:50;0.70;99.90
52979;DHT22;63430;53.186;6.598;2023-12-04T01:47:54;0.40;99.90
52979;DHT22;63430;53.186;6.598;2023-12-04T01:49:57;0.40;99.90
52979;DHT22;63430;53.186;6.598;2023-12-04T01:52:00;0.40;99.90
52979;DHT22;63430;53.186;6.598;2023-12-04T01:54:05;0.40;99.90
52979;DHT22;63430;53.186;6.598;2023-12-04T01:56:09;0.40;99.90
52979;DHT22;63430;53.186;6.598;2023-12-04T01:58:12;0.40;99.90
52979;DHT22;63430;53.186;6.598;2023-12-04T02:00:18;0.40;99.90
52979;DHT22;63430;53.186;6.598;2023-12-04T02:02:23;0.40;99.90
52979;DHT22;63430;53.186;6.598;2023-12-04T02:04:27;0.40;99.90
52979;DHT22;63430;53.186;6.598;2023-12-04T02:06:30;0.40;99.90
52979;DHT22;63430;53.186;6.598;2023-12-04T02:08:33;0.40;99.90
52979;DHT22;63430;53.186;6.598;2023-12-04T02:10:36;0.40;99.90
52979;DHT22;63430;53.186;6.598;2023-12-04T02:12:41;0.40;99.90
52979;DHT22;63430;53.186;6.598;2023-12-04T02:14:43;0.40;99.90
52979;DHT22;63430;53.186;6.598;2023-12-04T02:16:50;0.40;99.90
52979;DHT22;63430;53.186;6.598;2023-12-04T02:18:54;0.40;99.90
52979;DHT22;63430;53.186;6.598;2023-12-04T02:20:57;0.40;99.90
52979;DHT22;63430;53.186;6.598;2023-12-04T02:23:00;0.40;99.90
52979;DHT22;63430;53.186;6.598;2023-12-04T02:25:09;0.40;99.90
52979;DHT22;63430;53.186;6.598;2023-12-04T02:27:38;0.40;99.90
52979;DHT22;63430;53.186;6.598;2023-12-04T02:30:05;0.40;99.90
52979;DHT22;63430;53.186;6.598;2023-12-04T02:32:10;0.40;99.90
52979;DHT22;63430;53.186;6.598;2023-12-04T02:34:16;0.40;99.90
52979;DHT22;63430;53.186;6.598;2023-12-04T02:36:20;0.40;99.90
52979;DHT22;63430;53.186;6.598;2023-12-04T02:38:34;0.40;99.90
52979;DHT22;63430;53.186;6.598;2023-12-04T02:40:39;0.40;99.90
52979;DHT22;63430;53.186;6.598;2023-12-04T02:42:43;0.40;99.90
52979;DHT22;63430;53.186;6.598;2023-12-04T02:44:46;0.40;99.90
52979;DHT22;63430;53.186;6.598;2023-12-04T02:46:50;0.40;99.90
52979;DHT22;63430;53.186;6.598;2023-12-04T02:48:53;0.40;99.90
52979;DHT22;63430;53.186;6.598;2023-12-04T02:50:56;0.30;99.90
52979;DHT22;63430;53.186;6.598;2023-12-04T02:52:59;0.40;99.90
52979;DHT22;63430;53.186;6.598;2023-12-04T02:55:03;0.50;99.90
52979;DHT22;63430;53.186;6.598;2023-12-04T02:57:09;0.40;99.90
52979;DHT22;63430;53.186;6.598;2023-12-04T02:59:11;0.40;99.90
52979;DHT22;63430;53.186;6.598;2023-12-04T03:01:14;0.50;99.90
52979;DHT22;63430;53.186;6.598;2023-12-04T03:03:17;0.40;99.90
52979;DHT22;63430;53.186;6.598;2023-12-04T03:05:39;0.50;99.90
52979;DHT22;63430;53.186;6.598;2023-12-04T03:07:42;0.50;99.90
52979;DHT22;63430;53.186;6.598;2023-12-04T03:09:45;0.50;99.90
52979;DHT22;63430;53.186;6.598;2023-12-04T03:11:51;0.30;99.90
52979;DHT22;63430;53.186;6.598;2023-12-04T03:13:56;0.50;99.90
52979;DHT22;63430;53.186;6.598;2023-12-04T03:15:58;0.50;99.90
52979;DHT22;63430;53.186;6.598;2023-12-04T03:18:21;0.50;99.90
52979;DHT22;63430;53.186;6.598;2023-12-04T03:20:46;0.50;99.90
52979;DHT22;63430;53.186;6.598;2023-12-04T03:22:48;0.60;99.90
52979;DHT22;63430;53.186;6.598;2023-12-04T03:24:51;0.50;99.90
52979;DHT22;63430;53.186;6.598;2023-12-04T03:26:56;0.60;99.90
52979;DHT22;63430;53.186;6.598;2023-12-04T03:29:01;0.50;99.90
52979;DHT22;63430;53.186;6.598;2023-12-04T03:31:04;0.60;99.90
52979;DHT22;63430;53.186;6.598;2023-12-04T03:33:07;0.50;99.90
52979;DHT22;63430;53.186;6.598;2023-12-04T03:35:10;0.50;99.90
52979;DHT22;63430;53.186;6.598;2023-12-04T03:37:13;0.50;99.90
52979;DHT22;63430;53.186;6.598;2023-12-04T03:39:15;0.60;99.90
52979;DHT22;63430;53.186;6.598;2023-12-04T03:41:18;1.40;99.90
52979;DHT22;63430;53.186;6.598;2023-12-04T03:43:20;0.60;99.90
52979;DHT22;63430;53.186;6.598;2023-12-04T03:45:26;0.60;99.90
52979;DHT22;63430;53.186;6.598;2023-12-04T03:47:28;0.50;99.90
52979;DHT22;63430;53.186;6.598;2023-12-04T03:49:31;1.00;99.90
52979;DHT22;63430;53.186;6.598;2023-12-04T03:51:34;0.50;99.90
52979;DHT22;63430;53.186;6.598;2023-12-04T03:53:36;0.60;99.90
52979;DHT22;63430;53.186;6.598;2023-12-04T03:55:40;0.60;99.90
52979;DHT22;63430;53.186;6.598;2023-12-04T03:57:42;0.60;99.90
52979;DHT22;63430;53.186;6.598;2023-12-04T03:59:46;0.50;99.90
52979;DHT22;63430;53.186;6.598;2023-12-04T04:01:51;2.20;99.90
52979;DHT22;63430;53.186;6.598;2023-12-04T04:03:56;0.60;99.90
52979;DHT22;63430;53.186;6.598;2023-12-04T04:06:00;0.60;99.90
52979;DHT22;63430;53.186;6.598;2023-12-04T04:08:03;0.40;99.90
52979;DHT22;63430;53.186;6.598;2023-12-04T04:10:08;0.60;99.90
52979;DHT22;63430;53.186;6.598;2023-12-04T04:12:10;0.60;99.90
52979;DHT22;63430;53.186;6.598;2023-12-04T04:14:13;1.60;99.90
52979;DHT22;63430;53.186;6.598;2023-12-04T04:16:16;0.60;99.90
52979;DHT22;63430;53.186;6.598;2023-12-04T04:18:21;0.50;99.90
52979;DHT22;63430;53.186;6.598;2023-12-04T04:20:24;0.90;99.90
52979;DHT22;63430;53.186;6.598;2023-12-04T04:22:27;0.60;99.90
52979;DHT22;63430;53.186;6.598;2023-12-04T04:24:29;0.60;99.90
52979;DHT22;63430;53.186;6.598;2023-12-04T04:26:32;0.60;99.90
52979;DHT22;63430;53.186;6.598;2023-12-04T04:28:34;0.50;99.90
52979;DHT22;63430;53.186;6.598;2023-12-04T04:30:37;0.60;99.90
52979;DHT22;63430;53.186;6.598;2023-12-04T04:32:40;0.60;99.90
52979;DHT22;63430;53.186;6.598;2023-12-04T04:34:46;0.60;99.90
52979;DHT22;63430;53.186;6.598;2023-12-04T04:36:48;0.60;99.90
52979;DHT22;63430;53.186;6.598;2023-12-04T04:38:51;2.20;99.90
52979;DHT22;63430;53.186;6.598;2023-12-04T04:40:54;0.60;99.90
52979;DHT22;63430;53.186;6.598;2023-12-04T04:42:56;0.60;99.90
52979;DHT22;63430;53.186;6.598;2023-12-04T04:44:59;-0.20;99.90
52979;DHT22;63430;53.186;6.598;2023-12-04T04:47:01;0.60;99.90
52979;DHT22;63430;53.186;6.598;2023-12-04T04:49:04;0.70;99.90
52979;DHT22;63430;53.186;6.598;2023-12-04T04:51:12;0.80;99.90
52979;DHT22;63430;53.186;6.598;2023-12-04T04:53:15;0.60;99.90
52979;DHT22;63430;53.186;6.598;2023-12-04T04:55:18;0.50;99.90
52979;DHT22;63430;53.186;6.598;2023-12-04T04:57:41;0.70;99.90
52979;DHT22;63430;53.186;6.598;2023-12-04T04:59:43;0.70;99.90
52979;DHT22;63430;53.186;6.598;2023-12-04T05:01:46;0.60;99.90
52979;DHT22;63430;53.186;6.598;2023-12-04T05:03:48;0.70;99.90
52979;DHT22;63430;53.186;6.598;2023-12-04T05:05:51;0.50;99.90
52979;DHT22;63430;53.186;6.598;2023-12-04T05:07:57;-0.20;99.90
52979;DHT22;63430;53.186;6.598;2023-12-04T05:10:19;0.70;99.90
52979;DHT22;63430;53.186;6.598;2023-12-04T05:12:22;0.70;99.90
52979;DHT22;63430;53.186;6.598;2023-12-04T05:14:24;0.60;99.90
52979;DHT22;63430;53.186;6.598;2023-12-04T05:16:29;0.60;99.90
52979;DHT22;63430;53.186;6.598;2023-12-04T05:18:32;2.20;99.90
52979;DHT22;63430;53.186;6.598;2023-12-04T05:20:35;0.60;99.90
52979;DHT22;63430;53.186;6.598;2023-12-04T05:22:37;0.70;99.90
52979;DHT22;63430;53.186;6.598;2023-12-04T05:24:43;0.70;99.90
52979;DHT22;63430;53.186;6.598;2023-12-04T05:26:45;0.70;99.90
52979;DHT22;63430;53.186;6.598;2023-12-04T05:28:48;0.70;99.90
52979;DHT22;63430;53.186;6.598;2023-12-04T05:30:50;0.60;99.90
52979;DHT22;63430;53.186;6.598;2023-12-04T05:32:53;0.70;99.90
52979;DHT22;63430;53.186;6.598;2023-12-04T05:34:57;0.70;99.90
52979;DHT22;63430;53.186;6.598;2023-12-04T05:36:59;0.60;99.90
52979;DHT22;63430;53.186;6.598;2023-12-04T05:39:02;1.70;99.90
52979;DHT22;63430;53.186;6.598;2023-12-04T05:41:09;0.60;99.90
52979;DHT22;63430;53.186;6.598;2023-12-04T05:43:12;0.60;99.90
52979;DHT22;63430;53.186;6.598;2023-12-04T05:45:14;0.70;99.90
52979;DHT22;63430;53.186;6.598;2023-12-04T05:47:17;0.70;99.90
52979;DHT22;63430;53.186;6.598;2023-12-04T05:49:20;0.60;99.90
52979;DHT22;63430;53.186;6.598;2023-12-04T05:51:24;0.70;99.90
52979;DHT22;63430;53.186;6.598;2023-12-04T05:53:26;0.60;99.90
52979;DHT22;63430;53.186;6.598;2023-12-04T05:55:29;0.70;99.90
52979;DHT22;63430;53.186;6.598;2023-12-04T05:57:38;0.70;99.90
52979;DHT22;63430;53.186;6.598;2023-12-04T05:59:41;0.70;99.90
52979;DHT22;63430;53.186;6.598;2023-12-04T06:01:44;0.70;99.90
52979;DHT22;63430;53.186;6.598;2023-12-04T06:03:46;0.70;99.90
52979;DHT22;63430;53.186;6.598;2023-12-04T06:05:49;0.70;99.90
52979;DHT22;63430;53.186;6.598;2023-12-04T06:07:54;1.90;99.90
52979;DHT22;63430;53.186;6.598;2023-12-04T06:09:56;0.70;99.90
52979;DHT22;63430;53.186;6.598;2023-12-04T06:11:59;0.70;99.90
52979;DHT22;63430;53.186;6.598;2023-12-04T06:14:11;0.70;99.90
52979;DHT22;63430;53.186;6.598;2023-12-04T06:16:13;0.70;99.90
52979;DHT22;63430;53.186;6.598;2023-12-04T06:18:16;0.70;99.90
52979;DHT22;63430;53.186;6.598;2023-12-04T06:20:19;0.60;99.90
52979;DHT22;63430;53.186;6.598;2023-12-04T06:22:22;0.70;99.90
52979;DHT22;63430;53.186;6.598;2023-12-04T06:24:25;0.70;99.90
52979;DHT22;63430;53.186;6.598;2023-12-04T06:26:30;0.70;99.90
52979;DHT22;63430;53.186;6.598;2023-12-04T06:28:34;1.10;99.90
52979;DHT22;63430;53.186;6.598;2023-12-04T06:30:40;0.70;99.90
52979;DHT22;63430;53.186;6.598;2023-12-04T06:32:44;0.70;99.90
52979;DHT22;63430;53.186;6.598;2023-12-04T06:34:47;0.70;99.90
52979;DHT22;63430;53.186;6.598;2023-12-04T06:36:51;0.80;99.90
52979;DHT22;63430;53.186;6.598;2023-12-04T06:38:53;0.70;99.90
52979;DHT22;63430;53.186;6.598;2023-12-04T06:40:59;0.70;99.90
52979;DHT22;63430;53.186;6.598;2023-12-04T06:43:03;0.80;99.90
52979;DHT22;63430;53.186;6.598;2023-12-04T06:45:09;0.80;99.90
52979;DHT22;63430;53.186;6.598;2023-12-04T06:47:17;0.70;99.90
52979;DHT22;63430;53.186;6.598;2023-12-04T06:49:41;0.80;99.90
52979;DHT22;63430;53.186;6.598;2023-12-04T06:51:43;0.70;99.90
52979;DHT22;63430;53.186;6.598;2023-12-04T06:55:48;0.80;99.90
52979;DHT22;63430;53.186;6.598;2023-12-04T06:57:51;0.60;99.90
52979;DHT22;63430;53.186;6.598;2023-12-04T06:59:54;0.70;99.90
52979;DHT22;63430;53.186;6.598;2023-12-04T07:01:58;0.70;99.90
52979;DHT22;63430;53.186;6.598;2023-12-04T07:04:03;0.60;99.90
52979;DHT22;63430;53.186;6.598;2023-12-04T07:06:12;1.20;99.90
52979;DHT22;63430;53.186;6.598;2023-12-04T07:08:19;0.70;99.90
52979;DHT22;63430;53.186;6.598;2023-12-04T07:10:22;1.00;99.90
52979;DHT22;63430;53.186;6.598;2023-12-04T07:12:24;-0.30;99.90
52979;DHT22;63430;53.186;6.598;2023-12-04T07:14:27;0.60;99.90
52979;DHT22;63430;53.186;6.598;2023-12-04T07:16:30;0.80;99.90
52979;DHT22;63430;53.186;6.598;2023-12-04T07:18:33;0.50;99.90
52979;DHT22;63430;53.186;6.598;2023-12-04T07:20:38;0.70;99.90
52979;DHT22;63430;53.186;6.598;2023-12-04T07:22:41;0.80;99.90
52979;DHT22;63430;53.186;6.598;2023-12-04T07:24:43;0.40;99.90
52979;DHT22;63430;53.186;6.598;2023-12-04T07:26:46;0.70;99.90
52979;DHT22;63430;53.186;6.598;2023-12-04T07:28:49;1.00;99.90
52979;DHT22;63430;53.186;6.598;2023-12-04T07:30:54;2.40;99.90
52979;DHT22;63430;53.186;6.598;2023-12-04T07:32:57;0.70;99.90
52979;DHT22;63430;53.186;6.598;2023-12-04T07:35:00;0.70;99.90
52979;DHT22;63430;53.186;6.598;2023-12-04T07:37:05;0.70;99.90
52979;DHT22;63430;53.186;6.598;2023-12-04T07:39:08;0.50;99.90
52979;DHT22;63430;53.186;6.598;2023-12-04T07:41:31;0.70;99.90
52979;DHT22;63430;53.186;6.598;2023-12-04T07:43:33;0.70;99.90
52979;DHT22;63430;53.186;6.598;2023-12-04T07:45:36;0.70;99.90
52979;DHT22;63430;53.186;6.598;2023-12-04T07:47:39;0.70;99.90
52979;DHT22;63430;53.186;6.598;2023-12-04T07:49:42;0.70;99.90
52979;DHT22;63430;53.186;6.598;2023-12-04T07:51:44;0.70;99.90
52979;DHT22;63430;53.186;6.598;2023-12-04T07:53:50;0.70;99.90
52979;DHT22;63430;53.186;6.598;2023-12-04T07:55:52;0.70;99.90
52979;DHT22;63430;53.186;6.598;2023-12-04T07:57:55;0.70;99.90
52979;DHT22;63430;53.186;6.598;2023-12-04T07:59:59;0.70;99.90
52979;DHT22;63430;53.186;6.598;2023-12-04T08:02:01;0.70;99.90
52979;DHT22;63430;53.186;6.598;2023-12-04T08:04:04;0.70;99.90
52979;DHT22;63430;53.186;6.598;2023-12-04T08:06:07;0.60;99.90
52979;DHT22;63430;53.186;6.598;2023-12-04T08:08:11;0.70;99.90
52979;DHT22;63430;53.186;6.598;2023-12-04T08:10:16;0.80;99.90
52979;DHT22;63430;53.186;6.598;2023-12-04T08:12:19;0.80;99.90
52979;DHT22;63430;53.186;6.598;2023-12-04T08:14:21;0.80;99.90
52979;DHT22;63430;53.186;6.598;2023-12-04T08:16:27;0.80;99.90
52979;DHT22;63430;53.186;6.598;2023-12-04T08:18:31;0.80;99.90
52979;DHT22;63430;53.186;6.598;2023-12-04T08:20:53;0.80;99.90
52979;DHT22;63430;53.186;6.598;2023-12-04T08:22:56;0.90;99.90
52979;DHT22;63430;53.186;6.598;2023-12-04T08:24:59;0.90;99.90
52979;DHT22;63430;53.186;6.598;2023-12-04T08:27:05;1.30;99.90
52979;DHT22;63430;53.186;6.598;2023-12-04T08:29:07;0.90;99.90
52979;DHT22;63430;53.186;6.598;2023-12-04T08:31:10;0.90;99.90
52979;DHT22;63430;53.186;6.598;2023-12-04T08:33:12;0.90;99.90
52979;DHT22;63430;53.186;6.598;2023-12-04T08:35:15;1.00;99.90
52979;DHT22;63430;53.186;6.598;2023-12-04T08:37:18;1.00;99.90
52979;DHT22;63430;53.186;6.598;2023-12-04T08:39:24;1.00;99.90
52979;DHT22;63430;53.186;6.598;2023-12-04T08:41:27;1.00;99.90
52979;DHT22;63430;53.186;6.598;2023-12-04T08:43:36;1.10;99.90
52979;DHT22;63430;53.186;6.598;2023-12-04T08:45:38;1.00;99.90
52979;DHT22;63430;53.186;6.598;2023-12-04T08:47:41;1.00;99.90
52979;DHT22;63430;53.186;6.598;2023-12-04T08:49:44;1.10;99.90
52979;DHT22;63430;53.186;6.598;2023-12-04T08:51:51;1.10;99.90
52979;DHT22;63430;53.186;6.598;2023-12-04T08:53:55;1.10;99.90
52979;DHT22;63430;53.186;6.598;2023-12-04T08:55:57;2.40;99.90
52979;DHT22;63430;53.186;6.598;2023-12-04T08:58:00;1.10;99.90
52979;DHT22;63430;53.186;6.598;2023-12-04T09:00:07;1.20;99.90
52979;DHT22;63430;53.186;6.598;2023-12-04T09:02:11;1.20;99.90
52979;DHT22;63430;53.186;6.598;2023-12-04T09:04:16;1.20;99.90
52979;DHT22;63430;53.186;6.598;2023-12-04T09:06:19;1.20;99.90
52979;DHT22;63430;53.186;6.598;2023-12-04T09:08:41;1.20;99.90
52979;DHT22;63430;53.186;6.598;2023-12-04T09:10:57;1.20;99.90
52979;DHT22;63430;53.186;6.598;2023-12-04T09:13:39;1.20;99.90
52979;DHT22;63430;53.186;6.598;2023-12-04T09:15:44;1.30;99.90
52979;DHT22;63430;53.186;6.598;2023-12-04T09:18:07;1.70;99.90
52979;DHT22;63430;53.186;6.598;2023-12-04T09:20:09;1.30;99.90
52979;DHT22;63430;53.186;6.598;2023-12-04T09:22:33;1.30;99.90
52979;DHT22;63430;53.186;6.598;2023-12-04T09:24:53;1.30;99.90
52979;DHT22;63430;53.186;6.598;2023-12-04T09:26:58;1.30;99.90
52979;DHT22;63430;53.186;6.598;2023-12-04T09:29:00;1.30;99.90
52979;DHT22;63430;53.186;6.598;2023-12-04T09:31:06;1.30;99.90
52979;DHT22;63430;53.186;6.598;2023-12-04T09:33:10;1.30;99.90
52979;DHT22;63430;53.186;6.598;2023-12-04T09:35:13;1.30;99.90
52979;DHT22;63430;53.186;6.598;2023-12-04T09:37:17;1.30;99.90
52979;DHT22;63430;53.186;6.598;2023-12-04T09:39:20;1.40;99.90
52979;DHT22;63430;53.186;6.598;2023-12-04T09:41:22;1.40;99.90
52979;DHT22;63430;53.186;6.598;2023-12-04T09:43:46;1.40;99.90
52979;DHT22;63430;53.186;6.598;2023-12-04T09:45:49;1.40;99.90
52979;DHT22;63430;53.186;6.598;2023-12-04T09:47:55;1.50;99.90
52979;DHT22;63430;53.186;6.598;2023-12-04T09:49:58;1.50;99.90
52979;DHT22;63430;53.186;6.598;2023-12-04T09:52:22;1.50;99.90
52979;DHT22;63430;53.186;6.598;2023-12-04T09:54:24;1.50;99.90
52979;DHT22;63430;53.186;6.598;2023-12-04T09:56:29;1.60;99.90
52979;DHT22;63430;53.186;6.598;2023-12-04T09:58:33;1.60;99.90
52979;DHT22;63430;53.186;6.598;2023-12-04T10:00:37;1.60;99.90
52979;DHT22;63430;53.186;6.598;2023-12-04T10:02:40;1.60;99.90
52979;DHT22;63430;53.186;6.598;2023-12-04T10:04:47;1.60;99.90
52979;DHT22;63430;53.186;6.598;2023-12-04T10:06:51;1.70;99.90
52979;DHT22;63430;53.186;6.598;2023-12-04T10:08:55;1.70;99.90
52979;DHT22;63430;53.186;6.598;2023-12-04T10:10:59;1.70;99.90
52979;DHT22;63430;53.186;6.598;2023-12-04T10:13:03;1.70;99.90
52979;DHT22;63430;53.186;6.598;2023-12-04T10:15:07;1.60;99.90
52979;DHT22;63430;53.186;6.598;2023-12-04T10:17:14;1.80;99.90
52979;DHT22;63430;53.186;6.598;2023-12-04T10:19:19;1.80;99.90
52979;DHT22;63430;53.186;6.598;2023-12-04T10:21:32;1.80;99.90
52979;DHT22;63430;53.186;6.598;2023-12-04T10:23:39;1.90;99.90
52979;DHT22;63430;53.186;6.598;2023-12-04T10:25:42;1.90;99.90
52979;DHT22;63430;53.186;6.598;2023-12-04T10:27:44;1.90;99.90
52979;DHT22;63430;53.186;6.598;2023-12-04T10:29:48;2.00;99.90
52979;DHT22;63430;53.186;6.598;2023-12-04T10:31:51;2.00;99.90
52979;DHT22;63430;53.186;6.598;2023-12-04T10:33:55;2.00;99.90
52979;DHT22;63430;53.186;6.598;2023-12-04T10:35:58;2.00;99.90
52979;DHT22;63430;53.186;6.598;2023-12-04T10:38:04;2.00;99.90
52979;DHT22;63430;53.186;6.598;2023-12-04T10:40:08;2.00;99.90
52979;DHT22;63430;53.186;6.598;2023-12-04T10:42:11;2.00;99.90
52979;DHT22;63430;53.186;6.598;2023-12-04T10:44:16;3.00;99.90
52979;DHT22;63430;53.186;6.598;2023-12-04T10:46:20;2.00;99.90
52979;DHT22;63430;53.186;6.598;2023-12-04T10:48:23;2.00;99.90
52979;DHT22;63430;53.186;6.598;2023-12-04T10:50:27;2.00;99.90
52979;DHT22;63430;53.186;6.598;2023-12-04T10:52:32;0.70;99.90
52979;DHT22;63430;53.186;6.598;2023-12-04T10:54:37;2.00;99.90
52979;DHT22;63430;53.186;6.598;2023-12-04T10:56:40;2.00;99.90
52979;DHT22;63430;53.186;6.598;2023-12-04T10:58:50;2.70;99.90
52979;DHT22;63430;53.186;6.598;2023-12-04T11:00:55;2.00;99.90
52979;DHT22;63430;53.186;6.598;2023-12-04T11:03:03;3.40;99.90
52979;DHT22;63430;53.186;6.598;2023-12-04T11:05:08;2.00;99.90
52979;DHT22;63430;53.186;6.598;2023-12-04T11:07:18;2.00;99.90
52979;DHT22;63430;53.186;6.598;2023-12-04T11:09:22;2.50;99.90
52979;DHT22;63430;53.186;6.598;2023-12-04T11:11:36;2.10;99.90
52979;DHT22;63430;53.186;6.598;2023-12-04T11:13:42;2.10;99.90
52979;DHT22;63430;53.186;6.598;2023-12-04T11:15:48;2.20;99.90
52979;DHT22;63430;53.186;6.598;2023-12-04T11:17:59;3.50;99.90
52979;DHT22;63430;53.186;6.598;2023-12-04T11:20:07;2.40;99.90
52979;DHT22;63430;53.186;6.598;2023-12-04T11:22:14;2.30;99.90
52979;DHT22;63430;53.186;6.598;2023-12-04T11:24:18;2.30;99.90
52979;DHT22;63430;53.186;6.598;2023-12-04T11:26:43;3.10;99.90
52979;DHT22;63430;53.186;6.598;2023-12-04T11:28:47;2.40;99.90
52979;DHT22;63430;53.186;6.598;2023-12-04T11:30:50;2.40;99.90
52979;DHT22;63430;53.186;6.598;2023-12-04T11:32:54;2.50;99.90
52979;DHT22;63430;53.186;6.598;2023-12-04T11:35:20;2.50;99.90
52979;DHT22;63430;53.186;6.598;2023-12-04T11:37:23;2.60;99.90
52979;DHT22;63430;53.186;6.598;2023-12-04T11:39:26;2.60;99.90
52979;DHT22;63430;53.186;6.598;2023-12-04T11:41:30;2.60;99.90
52979;DHT22;63430;53.186;6.598;2023-12-04T11:43:35;2.60;99.90
52979;DHT22;63430;53.186;6.598;2023-12-04T11:45:40;2.60;99.90
52979;DHT22;63430;53.186;6.598;2023-12-04T11:47:49;2.60;99.90
52979;DHT22;63430;53.186;6.598;2023-12-04T11:49:52;2.60;99.90
52979;DHT22;63430;53.186;6.598;2023-12-04T11:51:55;2.50;99.90
52979;DHT22;63430;53.186;6.598;2023-12-04T11:53:58;2.60;99.90
52979;DHT22;63430;53.186;6.598;2023-12-04T11:56:09;2.60;99.90
52979;DHT22;63430;53.186;6.598;2023-12-04T11:58:12;2.60;99.90
52979;DHT22;63430;53.186;6.598;2023-12-04T12:00:28;2.60;99.90
52979;DHT22;63430;53.186;6.598;2023-12-04T12:02:32;2.50;99.90
52979;DHT22;63430;53.186;6.598;2023-12-04T12:04:55;2.50;99.90
52979;DHT22;63430;53.186;6.598;2023-12-04T12:06:58;2.50;99.90
52979;DHT22;63430;53.186;6.598;2023-12-04T12:09:01;2.40;99.90
52979;DHT22;63430;53.186;6.598;2023-12-04T12:11:05;2.40;99.90
52979;DHT22;63430;53.186;6.598;2023-12-04T12:13:08;2.40;99.90
52979;DHT22;63430;53.186;6.598;2023-12-04T12:15:18;2.40;99.90
52979;DHT22;63430;53.186;6.598;2023-12-04T12:17:23;2.40;99.90
52979;DHT22;63430;53.186;6.598;2023-12-04T12:19:26;2.30;99.90
52979;DHT22;63430;53.186;6.598;2023-12-04T12:21:30;2.30;99.90
52979;DHT22;63430;53.186;6.598;2023-12-04T12:23:33;2.30;99.90
52979;DHT22;63430;53.186;6.598;2023-12-04T12:25:55;2.30;99.90
52979;DHT22;63430;53.186;6.598;2023-12-04T12:28:02;2.30;99.90
52979;DHT22;63430;53.186;6.598;2023-12-04T12:30:06;2.30;99.90
52979;DHT22;63430;53.186;6.598;2023-12-04T12:32:32;2.30;99.90
52979;DHT22;63430;53.186;6.598;2023-12-04T12:34:45;2.30;99.90
52979;DHT22;63430;53.186;6.598;2023-12-04T12:37:09;2.30;99.90
52979;DHT22;63430;53.186;6.598;2023-12-04T12:39:31;2.30;99.90
52979;DHT22;63430;53.186;6.598;2023-12-04T12:41:34;2.30;99.90
52979;DHT22;63430;53.186;6.598;2023-12-04T12:43:37;2.30;99.90
52979;DHT22;63430;53.186;6.598;2023-12-04T12:45:40;3.30;99.90
52979;DHT22;63430;53.186;6.598;2023-12-04T12:47:45;3.50;99.90
52979;DHT22;63430;53.186;6.598;2023-12-04T12:49:48;2.30;99.90
52979;DHT22;63430;53.186;6.598;2023-12-04T12:52:16;2.30;99.90
52979;DHT22;63430;53.186;6.598;2023-12-04T12:54:24;2.30;99.90
52979;DHT22;63430;53.186;6.598;2023-12-04T12:56:26;2.70;99.90
52979;DHT22;63430;53.186;6.598;2023-12-04T12:58:29;2.30;99.90
52979;DHT22;63430;53.186;6.598;2023-12-04T13:00:34;2.30;99.90
52979;DHT22;63430;53.186;6.598;2023-12-04T13:02:37;2.20;99.90
52979;DHT22;63430;53.186;6.598;2023-12-04T13:04:43;2.30;99.90
52979;DHT22;63430;53.186;6.598;2023-12-04T13:06:47;2.30;99.90
52979;DHT22;63430;53.186;6.598;2023-12-04T13:08:49;2.20;99.90
52979;DHT22;63430;53.186;6.598;2023-12-04T13:10:52;2.30;99.90
52979;DHT22;63430;53.186;6.598;2023-12-04T13:12:55;2.20;99.90
52979;DHT22;63430;53.186;6.598;2023-12-04T13:15:18;2.20;99.90
52979;DHT22;63430;53.186;6.598;2023-12-04T13:17:21;2.30;99.90
52979;DHT22;63430;53.186;6.598;2023-12-04T13:19:24;2.30;99.90
52979;DHT22;63430;53.186;6.598;2023-12-04T13:21:32;2.20;99.90
52979;DHT22;63430;53.186;6.598;2023-12-04T13:23:34;2.20;99.90
52979;DHT22;63430;53.186;6.598;2023-12-04T13:25:57;2.20;99.90